sensor_id;sensor_type;location;lat;lon;timestamp;P1;durP1;ratioP1;P2;durP2;ratioP2
74495;SDS011;62979;55.720;37.606;2022-09-04T00:00:13;4.82;;;1.77;;
74495;SDS011;62979;55.720;37.606;2022-09-04T00:02:45;4.45;;;1.77;;
74495;SDS011;62979;55.720;37.606;2022-09-04T00:05:29;2.03;;;1.58;;
74495;SDS011;62979;55.720;37.606;2022-09-04T00:08:12;3.65;;;1.52;;
74495;SDS011;62979;55.720;37.606;2022-09-04T00:11:01;4.20;;;1.50;;
74495;SDS011;62979;55.720;37.606;2022-09-04T00:13:40;2.80;;;1.70;;
74495;SDS011;62979;55.720;37.606;2022-09-04T00:16:16;5.45;;;2.30;;
74495;SDS011;62979;55.720;37.606;2022-09-04T00:18:48;2.80;;;1.60;;
74495;SDS011;62979;55.720;37.606;2022-09-04T00:21:25;3.72;;;1.77;;
74495;SDS011;62979;55.720;37.606;2022-09-04T00:24:01;2.70;;;1.67;;
74495;SDS011;62979;55.720;37.606;2022-09-04T00:29:17;4.18;;;1.88;;
74495;SDS011;62979;55.720;37.606;2022-09-04T00:31:58;2.55;;;1.67;;
74495;SDS011;62979;55.720;37.606;2022-09-04T00:34:40;3.38;;;1.85;;
74495;SDS011;62979;55.720;37.606;2022-09-04T00:37:26;4.50;;;1.88;;
74495;SDS011;62979;55.720;37.606;2022-09-04T00:40:02;3.25;;;1.95;;
74495;SDS011;62979;55.720;37.606;2022-09-04T00:42:42;3.97;;;2.05;;
74495;SDS011;62979;55.720;37.606;2022-09-04T00:46:08;2.60;;;1.83;;
74495;SDS011;62979;55.720;37.606;2022-09-04T00:52:17;3.65;;;2.30;;
74495;SDS011;62979;55.720;37.606;2022-09-04T00:55:16;3.08;;;2.08;;
74495;SDS011;62979;55.720;37.606;2022-09-04T00:58:16;3.10;;;1.92;;
74495;SDS011;62979;55.720;37.606;2022-09-04T01:01:01;4.22;;;2.58;;
74495;SDS011;62979;55.720;37.606;2022-09-04T01:03:39;5.38;;;2.20;;
74495;SDS011;62979;55.720;37.606;2022-09-04T01:06:34;4.07;;;1.98;;
74495;SDS011;62979;55.720;37.606;2022-09-04T01:09:19;4.13;;;2.03;;
74495;SDS011;62979;55.720;37.606;2022-09-04T01:12:11;4.22;;;1.70;;
74495;SDS011;62979;55.720;37.606;2022-09-04T01:14:57;2.88;;;1.95;;
74495;SDS011;62979;55.720;37.606;2022-09-04T01:17:41;2.92;;;1.90;;
74495;SDS011;62979;55.720;37.606;2022-09-04T01:20:26;3.15;;;1.50;;
74495;SDS011;62979;55.720;37.606;2022-09-04T01:23:24;2.28;;;1.80;;
74495;SDS011;62979;55.720;37.606;2022-09-04T01:26:12;3.67;;;1.63;;
74495;SDS011;62979;55.720;37.606;2022-09-04T01:28:53;2.70;;;1.48;;
74495;SDS011;62979;55.720;37.606;2022-09-04T01:31:43;2.92;;;1.60;;
74495;SDS011;62979;55.720;37.606;2022-09-04T01:34:26;2.65;;;1.52;;
74495;SDS011;62979;55.720;37.606;2022-09-04T01:39:57;4.20;;;2.13;;
74495;SDS011;62979;55.720;37.606;2022-09-04T01:42:42;3.58;;;1.70;;
74495;SDS011;62979;55.720;37.606;2022-09-04T01:45:23;2.25;;;1.52;;
74495;SDS011;62979;55.720;37.606;2022-09-04T01:48:02;2.67;;;1.90;;
74495;SDS011;62979;55.720;37.606;2022-09-04T01:50:34;5.78;;;1.75;;
74495;SDS011;62979;55.720;37.606;2022-09-04T01:53:09;3.65;;;2.15;;
74495;SDS011;62979;55.720;37.606;2022-09-04T01:55:43;1.88;;;1.55;;
74495;SDS011;62979;55.720;37.606;2022-09-04T01:58:26;3.08;;;1.80;;
74495;SDS011;62979;55.720;37.606;2022-09-04T02:01:08;2.70;;;1.92;;
74495;SDS011;62979;55.720;37.606;2022-09-04T02:03:56;3.78;;;1.90;;
74495;SDS011;62979;55.720;37.606;2022-09-04T02:06:37;3.80;;;2.10;;
74495;SDS011;62979;55.720;37.606;2022-09-04T02:09:20;4.57;;;2.13;;
74495;SDS011;62979;55.720;37.606;2022-09-04T02:14:43;4.03;;;2.00;;
74495;SDS011;62979;55.720;37.606;2022-09-04T02:17:25;3.83;;;2.28;;
74495;SDS011;62979;55.720;37.606;2022-09-04T02:20:11;3.60;;;1.90;;
74495;SDS011;62979;55.720;37.606;2022-09-04T02:22:53;3.25;;;2.00;;
74495;SDS011;62979;55.720;37.606;2022-09-04T02:25:37;3.00;;;2.28;;
74495;SDS011;62979;55.720;37.606;2022-09-04T02:28:17;3.83;;;2.30;;
74495;SDS011;62979;55.720;37.606;2022-09-04T02:31:00;7.07;;;2.28;;
74495;SDS011;62979;55.720;37.606;2022-09-04T02:33:41;4.18;;;1.80;;
74495;SDS011;62979;55.720;37.606;2022-09-04T02:36:17;3.05;;;2.25;;
74495;SDS011;62979;55.720;37.606;2022-09-04T02:38:54;3.75;;;3.03;;
74495;SDS011;62979;55.720;37.606;2022-09-04T02:41:36;4.15;;;2.38;;
74495;SDS011;62979;55.720;37.606;2022-09-04T02:44:18;4.70;;;2.53;;
74495;SDS011;62979;55.720;37.606;2022-09-04T02:47:03;4.78;;;2.10;;
74495;SDS011;62979;55.720;37.606;2022-09-04T02:49:50;4.75;;;2.50;;
74495;SDS011;62979;55.720;37.606;2022-09-04T02:52:39;4.07;;;2.47;;
74495;SDS011;62979;55.720;37.606;2022-09-04T02:55:29;5.38;;;2.20;;
74495;SDS011;62979;55.720;37.606;2022-09-04T02:58:20;3.05;;;1.95;;
74495;SDS011;62979;55.720;37.606;2022-09-04T03:01:04;4.20;;;2.20;;
74495;SDS011;62979;55.720;37.606;2022-09-04T03:03:42;8.27;;;3.72;;
74495;SDS011;62979;55.720;37.606;2022-09-04T03:06:18;5.18;;;2.92;;
74495;SDS011;62979;55.720;37.606;2022-09-04T03:11:30;7.28;;;2.45;;
74495;SDS011;62979;55.720;37.606;2022-09-04T03:14:08;3.80;;;2.55;;
74495;SDS011;62979;55.720;37.606;2022-09-04T03:16:46;6.93;;;2.50;;
74495;SDS011;62979;55.720;37.606;2022-09-04T03:19:25;4.90;;;2.88;;
74495;SDS011;62979;55.720;37.606;2022-09-04T03:22:02;4.45;;;2.13;;
74495;SDS011;62979;55.720;37.606;2022-09-04T03:24:41;3.75;;;2.15;;
74495;SDS011;62979;55.720;37.606;2022-09-04T03:27:29;7.07;;;3.17;;
74495;SDS011;62979;55.720;37.606;2022-09-04T03:29:59;4.20;;;2.10;;
74495;SDS011;62979;55.720;37.606;2022-09-04T03:35:14;5.20;;;2.63;;
74495;SDS011;62979;55.720;37.606;2022-09-04T03:38:05;3.63;;;2.67;;
74495;SDS011;62979;55.720;37.606;2022-09-04T03:40:47;3.97;;;3.13;;
74495;SDS011;62979;55.720;37.606;2022-09-04T03:43:35;4.53;;;3.13;;
74495;SDS011;62979;55.720;37.606;2022-09-04T03:46:25;5.30;;;2.83;;
74495;SDS011;62979;55.720;37.606;2022-09-04T03:49:12;3.85;;;2.38;;
74495;SDS011;62979;55.720;37.606;2022-09-04T03:52:01;4.15;;;2.58;;
74495;SDS011;62979;55.720;37.606;2022-09-04T03:54:43;5.78;;;3.45;;
74495;SDS011;62979;55.720;37.606;2022-09-04T03:57:37;4.78;;;2.88;;
74495;SDS011;62979;55.720;37.606;2022-09-04T04:00:24;4.10;;;2.78;;
74495;SDS011;62979;55.720;37.606;2022-09-04T04:03:00;7.20;;;2.83;;
74495;SDS011;62979;55.720;37.606;2022-09-04T04:05:50;8.10;;;3.40;;
74495;SDS011;62979;55.720;37.606;2022-09-04T04:08:45;4.78;;;3.20;;
74495;SDS011;62979;55.720;37.606;2022-09-04T04:11:50;4.68;;;2.95;;
74495;SDS011;62979;55.720;37.606;2022-09-04T04:14:44;4.55;;;2.90;;
74495;SDS011;62979;55.720;37.606;2022-09-04T04:17:41;5.90;;;3.53;;
74495;SDS011;62979;55.720;37.606;2022-09-04T04:20:53;5.07;;;2.80;;
74495;SDS011;62979;55.720;37.606;2022-09-04T04:26:43;6.15;;;3.67;;
74495;SDS011;62979;55.720;37.606;2022-09-04T04:29:36;5.32;;;3.40;;
74495;SDS011;62979;55.720;37.606;2022-09-04T04:32:32;3.00;;;2.42;;
74495;SDS011;62979;55.720;37.606;2022-09-04T04:35:43;5.03;;;2.65;;
74495;SDS011;62979;55.720;37.606;2022-09-04T04:38:32;4.05;;;2.70;;
74495;SDS011;62979;55.720;37.606;2022-09-04T04:41:16;5.38;;;2.88;;
74495;SDS011;62979;55.720;37.606;2022-09-04T04:44:22;4.78;;;2.90;;
74495;SDS011;62979;55.720;37.606;2022-09-04T04:47:17;4.10;;;2.40;;
74495;SDS011;62979;55.720;37.606;2022-09-04T04:50:05;6.93;;;3.00;;
74495;SDS011;62979;55.720;37.606;2022-09-04T04:52:50;7.05;;;3.08;;
74495;SDS011;62979;55.720;37.606;2022-09-04T04:55:34;4.40;;;3.00;;
74495;SDS011;62979;55.720;37.606;2022-09-04T04:58:19;6.47;;;2.20;;
74495;SDS011;62979;55.720;37.606;2022-09-04T05:01:04;3.95;;;3.30;;
74495;SDS011;62979;55.720;37.606;2022-09-04T05:03:52;2.92;;;2.45;;
74495;SDS011;62979;55.720;37.606;2022-09-04T05:06:34;4.70;;;2.67;;
74495;SDS011;62979;55.720;37.606;2022-09-04T05:09:12;7.10;;;2.70;;
74495;SDS011;62979;55.720;37.606;2022-09-04T05:11:50;2.95;;;2.40;;
74495;SDS011;62979;55.720;37.606;2022-09-04T05:14:31;5.18;;;2.95;;
74495;SDS011;62979;55.720;37.606;2022-09-04T05:17:17;4.03;;;3.10;;
74495;SDS011;62979;55.720;37.606;2022-09-04T05:19:59;2.97;;;1.98;;
74495;SDS011;62979;55.720;37.606;2022-09-04T05:22:52;4.65;;;2.40;;
74495;SDS011;62979;55.720;37.606;2022-09-04T05:25:33;3.20;;;2.22;;
74495;SDS011;62979;55.720;37.606;2022-09-04T05:28:11;2.53;;;2.28;;
74495;SDS011;62979;55.720;37.606;2022-09-04T05:30:57;3.22;;;2.33;;
74495;SDS011;62979;55.720;37.606;2022-09-04T05:33:39;3.83;;;2.03;;
74495;SDS011;62979;55.720;37.606;2022-09-04T05:36:23;6.45;;;3.25;;
74495;SDS011;62979;55.720;37.606;2022-09-04T05:39:07;3.85;;;1.88;;
74495;SDS011;62979;55.720;37.606;2022-09-04T05:41:48;3.03;;;1.70;;
74495;SDS011;62979;55.720;37.606;2022-09-04T05:44:34;4.72;;;1.80;;
74495;SDS011;62979;55.720;37.606;2022-09-04T05:47:18;3.35;;;1.67;;
74495;SDS011;62979;55.720;37.606;2022-09-04T05:50:10;2.30;;;1.80;;
74495;SDS011;62979;55.720;37.606;2022-09-04T05:53:00;2.25;;;1.55;;
74495;SDS011;62979;55.720;37.606;2022-09-04T05:56:05;2.53;;;1.30;;
74495;SDS011;62979;55.720;37.606;2022-09-04T05:59:04;2.72;;;1.17;;
74495;SDS011;62979;55.720;37.606;2022-09-04T06:05:14;2.08;;;1.52;;
74495;SDS011;62979;55.720;37.606;2022-09-04T06:07:54;2.67;;;1.73;;
74495;SDS011;62979;55.720;37.606;2022-09-04T06:10:34;3.03;;;1.55;;
74495;SDS011;62979;55.720;37.606;2022-09-04T06:13:27;5.30;;;1.73;;
74495;SDS011;62979;55.720;37.606;2022-09-04T06:16:21;3.80;;;1.60;;
74495;SDS011;62979;55.720;37.606;2022-09-04T06:19:24;4.07;;;1.40;;
74495;SDS011;62979;55.720;37.606;2022-09-04T06:25:15;3.00;;;2.05;;
74495;SDS011;62979;55.720;37.606;2022-09-04T06:31:32;2.72;;;1.63;;
74495;SDS011;62979;55.720;37.606;2022-09-04T06:34:41;3.10;;;1.70;;
74495;SDS011;62979;55.720;37.606;2022-09-04T06:37:30;1.40;;;1.25;;
74495;SDS011;62979;55.720;37.606;2022-09-04T06:40:19;4.43;;;1.60;;
74495;SDS011;62979;55.720;37.606;2022-09-04T06:43:18;5.38;;;1.23;;
74495;SDS011;62979;55.720;37.606;2022-09-04T06:46:04;2.20;;;1.48;;
74495;SDS011;62979;55.720;37.606;2022-09-04T06:48:52;6.75;;;1.38;;
74495;SDS011;62979;55.720;37.606;2022-09-04T06:51:36;2.75;;;2.08;;
74495;SDS011;62979;55.720;37.606;2022-09-04T06:54:25;3.70;;;0.98;;
74495;SDS011;62979;55.720;37.606;2022-09-04T06:57:30;1.02;;;0.88;;
74495;SDS011;62979;55.720;37.606;2022-09-04T07:00:18;1.20;;;0.82;;
74495;SDS011;62979;55.720;37.606;2022-09-04T07:02:57;1.98;;;1.00;;
74495;SDS011;62979;55.720;37.606;2022-09-04T07:05:56;4.25;;;1.08;;
74495;SDS011;62979;55.720;37.606;2022-09-04T07:08:40;1.45;;;0.82;;
74495;SDS011;62979;55.720;37.606;2022-09-04T07:11:28;1.83;;;1.40;;
74495;SDS011;62979;55.720;37.606;2022-09-04T07:14:26;2.55;;;1.70;;
74495;SDS011;62979;55.720;37.606;2022-09-04T07:17:24;1.17;;;0.93;;
74495;SDS011;62979;55.720;37.606;2022-09-04T07:20:05;1.65;;;0.60;;
74495;SDS011;62979;55.720;37.606;2022-09-04T07:22:52;2.38;;;0.80;;
74495;SDS011;62979;55.720;37.606;2022-09-04T07:25:50;1.30;;;0.73;;
74495;SDS011;62979;55.720;37.606;2022-09-04T07:28:34;1.52;;;0.47;;
74495;SDS011;62979;55.720;37.606;2022-09-04T07:31:20;2.55;;;0.55;;
74495;SDS011;62979;55.720;37.606;2022-09-04T07:33:56;0.63;;;0.63;;
74495;SDS011;62979;55.720;37.606;2022-09-04T07:36:35;1.38;;;0.50;;
74495;SDS011;62979;55.720;37.606;2022-09-04T07:39:13;1.42;;;0.68;;
74495;SDS011;62979;55.720;37.606;2022-09-04T07:41:52;0.57;;;0.55;;
74495;SDS011;62979;55.720;37.606;2022-09-04T07:44:31;1.60;;;0.70;;
74495;SDS011;62979;55.720;37.606;2022-09-04T07:47:10;2.20;;;0.57;;
74495;SDS011;62979;55.720;37.606;2022-09-04T07:49:51;0.30;;;0.30;;
74495;SDS011;62979;55.720;37.606;2022-09-04T07:52:36;1.67;;;0.55;;
74495;SDS011;62979;55.720;37.606;2022-09-04T07:55:34;2.22;;;0.50;;
74495;SDS011;62979;55.720;37.606;2022-09-04T08:01:45;0.93;;;0.43;;
74495;SDS011;62979;55.720;37.606;2022-09-04T08:04:38;0.50;;;0.30;;
74495;SDS011;62979;55.720;37.606;2022-09-04T08:07:46;2.35;;;0.50;;
74495;SDS011;62979;55.720;37.606;2022-09-04T08:10:45;1.73;;;0.30;;
74495;SDS011;62979;55.720;37.606;2022-09-04T08:13:51;1.08;;;0.70;;
74495;SDS011;62979;55.720;37.606;2022-09-04T08:16:50;0.95;;;0.35;;
74495;SDS011;62979;55.720;37.606;2022-09-04T08:19:51;0.70;;;0.55;;
74495;SDS011;62979;55.720;37.606;2022-09-04T08:22:30;0.52;;;0.43;;
74495;SDS011;62979;55.720;37.606;2022-09-04T08:25:19;1.15;;;0.52;;
74495;SDS011;62979;55.720;37.606;2022-09-04T08:28:03;2.10;;;0.63;;
74495;SDS011;62979;55.720;37.606;2022-09-04T08:30:54;1.10;;;0.63;;
74495;SDS011;62979;55.720;37.606;2022-09-04T08:33:36;1.65;;;0.82;;
74495;SDS011;62979;55.720;37.606;2022-09-04T08:36:29;1.25;;;0.40;;
74495;SDS011;62979;55.720;37.606;2022-09-04T08:39:08;0.85;;;0.35;;
74495;SDS011;62979;55.720;37.606;2022-09-04T08:52:09;1.70;;;1.60;;
74495;SDS011;62979;55.720;37.606;2022-09-04T08:55:21;0.50;;;0.38;;
74495;SDS011;62979;55.720;37.606;2022-09-04T08:58:38;1.75;;;0.55;;
74495;SDS011;62979;55.720;37.606;2022-09-04T09:05:15;0.70;;;0.22;;
74495;SDS011;62979;55.720;37.606;2022-09-04T09:12:09;3.05;;;1.60;;
74495;SDS011;62979;55.720;37.606;2022-09-04T09:18:26;1.83;;;0.30;;
74495;SDS011;62979;55.720;37.606;2022-09-04T09:21:04;0.65;;;0.65;;
74495;SDS011;62979;55.720;37.606;2022-09-04T09:23:37;1.08;;;0.45;;
74495;SDS011;62979;55.720;37.606;2022-09-04T09:29:16;1.23;;;0.82;;
74495;SDS011;62979;55.720;37.606;2022-09-04T09:32:14;1.52;;;0.40;;
74495;SDS011;62979;55.720;37.606;2022-09-04T09:35:35;0.80;;;0.50;;
74495;SDS011;62979;55.720;37.606;2022-09-04T09:38:44;0.75;;;0.55;;
74495;SDS011;62979;55.720;37.606;2022-09-04T09:45:38;1.85;;;0.45;;
74495;SDS011;62979;55.720;37.606;2022-09-04T09:52:19;0.63;;;0.55;;
74495;SDS011;62979;55.720;37.606;2022-09-04T10:02:04;0.98;;;0.75;;
74495;SDS011;62979;55.720;37.606;2022-09-04T10:05:07;0.32;;;0.32;;
74495;SDS011;62979;55.720;37.606;2022-09-04T10:08:23;0.95;;;0.90;;
74495;SDS011;62979;55.720;37.606;2022-09-04T10:11:21;2.90;;;0.40;;
74495;SDS011;62979;55.720;37.606;2022-09-04T10:14:40;1.08;;;0.43;;
74495;SDS011;62979;55.720;37.606;2022-09-04T10:17:55;1.52;;;0.40;;
74495;SDS011;62979;55.720;37.606;2022-09-04T10:27:25;1.33;;;1.23;;
74495;SDS011;62979;55.720;37.606;2022-09-04T10:30:32;1.13;;;0.85;;
74495;SDS011;62979;55.720;37.606;2022-09-04T10:33:31;1.58;;;1.23;;
74495;SDS011;62979;55.720;37.606;2022-09-04T10:36:23;1.55;;;1.45;;
74495;SDS011;62979;55.720;37.606;2022-09-04T10:39:08;2.25;;;0.63;;
74495;SDS011;62979;55.720;37.606;2022-09-04T10:42:12;1.30;;;1.30;;
74495;SDS011;62979;55.720;37.606;2022-09-04T10:45:02;1.45;;;1.45;;
74495;SDS011;62979;55.720;37.606;2022-09-04T10:51:12;1.35;;;0.20;;
74495;SDS011;62979;55.720;37.606;2022-09-04T10:54:30;1.45;;;0.43;;
74495;SDS011;62979;55.720;37.606;2022-09-04T10:57:28;0.80;;;0.50;;
74495;SDS011;62979;55.720;37.606;2022-09-04T11:00:18;1.15;;;0.68;;
74495;SDS011;62979;55.720;37.606;2022-09-04T11:06:10;0.70;;;0.50;;
74495;SDS011;62979;55.720;37.606;2022-09-04T11:09:41;1.10;;;0.50;;
74495;SDS011;62979;55.720;37.606;2022-09-04T11:15:47;0.68;;;0.68;;
74495;SDS011;62979;55.720;37.606;2022-09-04T11:18:37;2.15;;;0.60;;
74495;SDS011;62979;55.720;37.606;2022-09-04T11:21:49;2.63;;;1.60;;
74495;SDS011;62979;55.720;37.606;2022-09-04T11:31:56;1.67;;;1.58;;
74495;SDS011;62979;55.720;37.606;2022-09-04T11:38:35;1.98;;;1.88;;
74495;SDS011;62979;55.720;37.606;2022-09-04T11:54:32;1.13;;;0.77;;
74495;SDS011;62979;55.720;37.606;2022-09-04T11:57:44;1.13;;;0.55;;
74495;SDS011;62979;55.720;37.606;2022-09-04T12:00:36;1.67;;;0.35;;
74495;SDS011;62979;55.720;37.606;2022-09-04T12:03:31;0.80;;;0.43;;
74495;SDS011;62979;55.720;37.606;2022-09-04T12:06:27;2.45;;;2.30;;
74495;SDS011;62979;55.720;37.606;2022-09-04T12:09:23;2.05;;;1.65;;
74495;SDS011;62979;55.720;37.606;2022-09-04T12:12:22;2.17;;;1.98;;
74495;SDS011;62979;55.720;37.606;2022-09-04T12:26:08;1.15;;;0.90;;
74495;SDS011;62979;55.720;37.606;2022-09-04T12:29:18;1.05;;;0.40;;
74495;SDS011;62979;55.720;37.606;2022-09-04T12:42:26;1.42;;;1.33;;
74495;SDS011;62979;55.720;37.606;2022-09-04T12:45:03;4.00;;;1.02;;
74495;SDS011;62979;55.720;37.606;2022-09-04T12:47:50;2.15;;;0.80;;
74495;SDS011;62979;55.720;37.606;2022-09-04T12:50:32;1.15;;;1.05;;
74495;SDS011;62979;55.720;37.606;2022-09-04T12:56:16;1.33;;;0.63;;
74495;SDS011;62979;55.720;37.606;2022-09-04T12:58:57;1.20;;;0.40;;
74495;SDS011;62979;55.720;37.606;2022-09-04T13:01:49;2.38;;;2.28;;
74495;SDS011;62979;55.720;37.606;2022-09-04T13:04:28;2.00;;;1.77;;
74495;SDS011;62979;55.720;37.606;2022-09-04T13:07:17;2.03;;;1.92;;
74495;SDS011;62979;55.720;37.606;2022-09-04T13:10:08;5.53;;;2.90;;
74495;SDS011;62979;55.720;37.606;2022-09-04T13:13:00;2.05;;;1.95;;
74495;SDS011;62979;55.720;37.606;2022-09-04T13:15:44;2.13;;;1.50;;
74495;SDS011;62979;55.720;37.606;2022-09-04T13:18:34;3.83;;;1.02;;
74495;SDS011;62979;55.720;37.606;2022-09-04T13:21:21;1.33;;;0.15;;
74495;SDS011;62979;55.720;37.606;2022-09-04T13:24:16;0.38;;;0.22;;
74495;SDS011;62979;55.720;37.606;2022-09-04T13:27:04;3.28;;;0.90;;
74495;SDS011;62979;55.720;37.606;2022-09-04T13:35:58;10.45;;;3.33;;
74495;SDS011;62979;55.720;37.606;2022-09-04T13:38:45;7.57;;;1.58;;
74495;SDS011;62979;55.720;37.606;2022-09-04T13:45:03;2.13;;;1.83;;
74495;SDS011;62979;55.720;37.606;2022-09-04T13:47:44;5.45;;;3.88;;
74495;SDS011;62979;55.720;37.606;2022-09-04T13:50:22;3.50;;;1.55;;
74495;SDS011;62979;55.720;37.606;2022-09-04T13:52:56;1.20;;;0.52;;
74495;SDS011;62979;55.720;37.606;2022-09-04T13:58:06;2.42;;;1.33;;
74495;SDS011;62979;55.720;37.606;2022-09-04T14:00:44;1.90;;;1.38;;
74495;SDS011;62979;55.720;37.606;2022-09-04T14:03:25;1.52;;;0.88;;
74495;SDS011;62979;55.720;37.606;2022-09-04T14:06:01;2.63;;;1.08;;
74495;SDS011;62979;55.720;37.606;2022-09-04T14:08:33;1.67;;;1.58;;
74495;SDS011;62979;55.720;37.606;2022-09-04T14:11:10;1.70;;;1.58;;
74495;SDS011;62979;55.720;37.606;2022-09-04T14:14:08;0.90;;;0.38;;
74495;SDS011;62979;55.720;37.606;2022-09-04T14:17:28;0.90;;;0.40;;
74495;SDS011;62979;55.720;37.606;2022-09-04T14:20:05;0.77;;;0.40;;
74495;SDS011;62979;55.720;37.606;2022-09-04T14:22:43;3.13;;;0.40;;
74495;SDS011;62979;55.720;37.606;2022-09-04T14:25:28;1.00;;;0.63;;
74495;SDS011;62979;55.720;37.606;2022-09-04T14:28:09;1.10;;;0.22;;
74495;SDS011;62979;55.720;37.606;2022-09-04T14:30:52;0.93;;;0.50;;
74495;SDS011;62979;55.720;37.606;2022-09-04T14:33:35;0.98;;;0.50;;
74495;SDS011;62979;55.720;37.606;2022-09-04T14:39:14;2.53;;;1.48;;
74495;SDS011;62979;55.720;37.606;2022-09-04T14:45:04;1.52;;;1.02;;
74495;SDS011;62979;55.720;37.606;2022-09-04T14:47:44;2.47;;;1.20;;
74495;SDS011;62979;55.720;37.606;2022-09-04T14:50:21;1.45;;;1.35;;
74495;SDS011;62979;55.720;37.606;2022-09-04T14:52:54;3.70;;;1.05;;
74495;SDS011;62979;55.720;37.606;2022-09-04T14:55:26;1.38;;;1.30;;
74495;SDS011;62979;55.720;37.606;2022-09-04T14:57:57;1.05;;;1.05;;
74495;SDS011;62979;55.720;37.606;2022-09-04T15:00:50;2.05;;;0.82;;
74495;SDS011;62979;55.720;37.606;2022-09-04T15:06:02;1.90;;;0.38;;
74495;SDS011;62979;55.720;37.606;2022-09-04T15:08:41;0.82;;;0.40;;
74495;SDS011;62979;55.720;37.606;2022-09-04T15:11:23;1.48;;;0.50;;
74495;SDS011;62979;55.720;37.606;2022-09-04T15:13:55;1.95;;;0.40;;
74495;SDS011;62979;55.720;37.606;2022-09-04T15:19:22;0.90;;;0.68;;
74495;SDS011;62979;55.720;37.606;2022-09-04T15:22:07;2.22;;;0.82;;
74495;SDS011;62979;55.720;37.606;2022-09-04T15:24:48;1.98;;;0.57;;
74495;SDS011;62979;55.720;37.606;2022-09-04T15:27:29;4.40;;;0.70;;
74495;SDS011;62979;55.720;37.606;2022-09-04T15:30:15;0.52;;;0.52;;
74495;SDS011;62979;55.720;37.606;2022-09-04T15:32:47;3.90;;;0.70;;
74495;SDS011;62979;55.720;37.606;2022-09-04T15:35:27;4.55;;;0.30;;
74495;SDS011;62979;55.720;37.606;2022-09-04T15:38:03;5.28;;;1.42;;
74495;SDS011;62979;55.720;37.606;2022-09-04T15:40:45;1.88;;;0.43;;
74495;SDS011;62979;55.720;37.606;2022-09-04T15:43:30;5.32;;;0.70;;
74495;SDS011;62979;55.720;37.606;2022-09-04T15:46:07;2.42;;;0.63;;
74495;SDS011;62979;55.720;37.606;2022-09-04T15:48:53;4.72;;;1.02;;
74495;SDS011;62979;55.720;37.606;2022-09-04T15:51:38;2.40;;;0.65;;
74495;SDS011;62979;55.720;37.606;2022-09-04T15:54:22;1.70;;;0.80;;
74495;SDS011;62979;55.720;37.606;2022-09-04T15:57:01;2.42;;;0.82;;
74495;SDS011;62979;55.720;37.606;2022-09-04T15:59:40;3.83;;;0.50;;
74495;SDS011;62979;55.720;37.606;2022-09-04T16:02:27;2.03;;;0.73;;
74495;SDS011;62979;55.720;37.606;2022-09-04T16:05:04;0.73;;;0.30;;
74495;SDS011;62979;55.720;37.606;2022-09-04T16:07:42;0.60;;;0.40;;
74495;SDS011;62979;55.720;37.606;2022-09-04T16:10:38;0.88;;;0.40;;
74495;SDS011;62979;55.720;37.606;2022-09-04T16:13:33;5.32;;;0.32;;
74495;SDS011;62979;55.720;37.606;2022-09-04T16:16:11;0.70;;;0.45;;
74495;SDS011;62979;55.720;37.606;2022-09-04T16:18:48;1.55;;;0.45;;
74495;SDS011;62979;55.720;37.606;2022-09-04T16:21:28;1.33;;;0.65;;
74495;SDS011;62979;55.720;37.606;2022-09-04T16:24:10;3.13;;;0.70;;
74495;SDS011;62979;55.720;37.606;2022-09-04T16:26:46;1.30;;;0.57;;
74495;SDS011;62979;55.720;37.606;2022-09-04T16:29:22;4.15;;;1.15;;
74495;SDS011;62979;55.720;37.606;2022-09-04T16:32:00;2.63;;;0.43;;
74495;SDS011;62979;55.720;37.606;2022-09-04T16:34:36;3.17;;;0.95;;
74495;SDS011;62979;55.720;37.606;2022-09-04T16:37:13;5.88;;;2.03;;
74495;SDS011;62979;55.720;37.606;2022-09-04T16:39:57;3.22;;;1.45;;
74495;SDS011;62979;55.720;37.606;2022-09-04T16:42:40;3.00;;;1.02;;
74495;SDS011;62979;55.720;37.606;2022-09-04T16:45:15;1.55;;;0.40;;
74495;SDS011;62979;55.720;37.606;2022-09-04T16:47:51;3.60;;;0.68;;
74495;SDS011;62979;55.720;37.606;2022-09-04T16:50:27;4.03;;;0.50;;
74495;SDS011;62979;55.720;37.606;2022-09-04T16:53:13;1.63;;;0.52;;
74495;SDS011;62979;55.720;37.606;2022-09-04T16:55:47;2.47;;;0.85;;
74495;SDS011;62979;55.720;37.606;2022-09-04T16:58:29;1.05;;;0.60;;
74495;SDS011;62979;55.720;37.606;2022-09-04T17:01:12;2.80;;;0.93;;
74495;SDS011;62979;55.720;37.606;2022-09-04T17:03:48;1.17;;;0.60;;
74495;SDS011;62979;55.720;37.606;2022-09-04T17:06:30;3.35;;;0.90;;
74495;SDS011;62979;55.720;37.606;2022-09-04T17:09:07;6.70;;;0.75;;
74495;SDS011;62979;55.720;37.606;2022-09-04T17:11:48;5.85;;;0.50;;
74495;SDS011;62979;55.720;37.606;2022-09-04T17:14:23;2.25;;;0.63;;
74495;SDS011;62979;55.720;37.606;2022-09-04T17:17:03;2.92;;;0.85;;
74495;SDS011;62979;55.720;37.606;2022-09-04T17:19:41;1.80;;;0.60;;
74495;SDS011;62979;55.720;37.606;2022-09-04T17:22:09;3.38;;;1.08;;
74495;SDS011;62979;55.720;37.606;2022-09-04T17:25:03;2.75;;;1.13;;
74495;SDS011;62979;55.720;37.606;2022-09-04T17:27:42;2.25;;;0.63;;
74495;SDS011;62979;55.720;37.606;2022-09-04T17:30:23;2.35;;;0.50;;
74495;SDS011;62979;55.720;37.606;2022-09-04T17:33:01;1.38;;;0.70;;
74495;SDS011;62979;55.720;37.606;2022-09-04T17:38:15;3.20;;;0.30;;
74495;SDS011;62979;55.720;37.606;2022-09-04T17:40:56;2.35;;;1.40;;
74495;SDS011;62979;55.720;37.606;2022-09-04T17:43:47;2.10;;;0.65;;
74495;SDS011;62979;55.720;37.606;2022-09-04T17:46:32;1.63;;;0.82;;
74495;SDS011;62979;55.720;37.606;2022-09-04T17:49:14;3.10;;;0.98;;
74495;SDS011;62979;55.720;37.606;2022-09-04T17:51:46;1.55;;;0.70;;
74495;SDS011;62979;55.720;37.606;2022-09-04T17:56:49;2.20;;;0.90;;
74495;SDS011;62979;55.720;37.606;2022-09-04T17:59:23;1.55;;;1.25;;
74495;SDS011;62979;55.720;37.606;2022-09-04T18:02:02;3.92;;;2.85;;
74495;SDS011;62979;55.720;37.606;2022-09-04T18:04:42;1.58;;;1.15;;
74495;SDS011;62979;55.720;37.606;2022-09-04T18:07:19;4.60;;;1.42;;
74495;SDS011;62979;55.720;37.606;2022-09-04T18:09:59;3.08;;;1.23;;
74495;SDS011;62979;55.720;37.606;2022-09-04T18:15:17;3.83;;;1.38;;
74495;SDS011;62979;55.720;37.606;2022-09-04T18:17:50;2.03;;;1.45;;
74495;SDS011;62979;55.720;37.606;2022-09-04T18:20:31;2.58;;;1.50;;
74495;SDS011;62979;55.720;37.606;2022-09-04T18:23:18;2.47;;;0.90;;
74495;SDS011;62979;55.720;37.606;2022-09-04T18:26:04;5.03;;;1.00;;
74495;SDS011;62979;55.720;37.606;2022-09-04T18:28:43;5.15;;;1.30;;
74495;SDS011;62979;55.720;37.606;2022-09-04T18:31:22;4.25;;;1.58;;
74495;SDS011;62979;55.720;37.606;2022-09-04T18:34:01;2.13;;;1.52;;
74495;SDS011;62979;55.720;37.606;2022-09-04T18:36:45;2.97;;;1.27;;
74495;SDS011;62979;55.720;37.606;2022-09-04T18:39:36;4.18;;;2.15;;
74495;SDS011;62979;55.720;37.606;2022-09-04T18:42:13;3.15;;;1.95;;
74495;SDS011;62979;55.720;37.606;2022-09-04T18:44:51;2.35;;;1.23;;
74495;SDS011;62979;55.720;37.606;2022-09-04T18:47:23;3.33;;;1.17;;
74495;SDS011;62979;55.720;37.606;2022-09-04T18:50:04;4.07;;;1.38;;
74495;SDS011;62979;55.720;37.606;2022-09-04T18:52:42;1.50;;;0.93;;
74495;SDS011;62979;55.720;37.606;2022-09-04T18:55:21;2.67;;;1.00;;
74495;SDS011;62979;55.720;37.606;2022-09-04T18:57:58;1.83;;;0.90;;
74495;SDS011;62979;55.720;37.606;2022-09-04T19:01:01;1.15;;;0.82;;
74495;SDS011;62979;55.720;37.606;2022-09-04T19:03:41;1.58;;;0.80;;
74495;SDS011;62979;55.720;37.606;2022-09-04T19:06:17;1.45;;;1.05;;
74495;SDS011;62979;55.720;37.606;2022-09-04T19:08:59;3.97;;;1.05;;
74495;SDS011;62979;55.720;37.606;2022-09-04T19:11:40;2.55;;;1.10;;